Time;durP1;ratioP1;P1;durP2;ratioP2;P2;SDS_P1;SDS_P2;PMS_P1;PMS_P2;Temp;Humidity;BMP_temperature;BMP_pressure;BME280_temperature;BME280_humidity;BME280_pressure;Samples;Min_cycle;Max_cycle;Signal;HPM_P1;HPM_P2
2022/12/03 00:02:21;;;;;;;60.10;21.47;;;-1.70;99.90;;;;;;5072962;28;20327;-82
2022/12/03 00:04:48;;;;;;;60.50;20.87;;;-1.70;99.90;;;;;;5074337;28;20200;-82
2022/12/03 00:07:16;;;;;;;57.33;20.23;;;-1.80;99.90;;;;;;5074828;28;20191;-87
2022/12/03 00:09:43;;;;;;;60.67;21.57;;;-1.80;99.90;;;;;;5073292;28;20231;-83
2022/12/03 00:12:13;;;;;;;55.27;20.67;;;-1.90;99.90;;;;;;5072863;28;20206;-78
2022/12/03 00:14:40;;;;;;;59.43;21.27;;;-1.80;99.90;;;;;;5072584;28;20226;-81
2022/12/03 00:17:10;;;;;;;62.13;21.67;;;-1.80;99.90;;;;;;5076664;28;20251;-71
2022/12/03 00:19:37;;;;;;;61.23;22.37;;;-1.80;99.90;;;;;;5093310;28;20190;-79
2022/12/03 00:22:04;;;;;;;62.50;22.10;;;-1.80;99.90;;;;;;5086265;28;20191;-71
2022/12/03 00:24:31;;;;;;;62.70;22.10;;;-1.80;99.90;;;;;;5082922;28;20286;-74
2022/12/03 00:26:58;;;;;;;59.43;20.53;;;-1.70;99.90;;;;;;5092207;28;20633;-76
2022/12/03 00:29:25;;;;;;;62.03;21.50;;;-1.70;99.90;;;;;;5092072;28;20199;-70
2022/12/03 00:31:52;;;;;;;57.70;20.77;;;-1.60;99.90;;;;;;5092320;28;20189;-75
2022/12/03 00:34:19;;;;;;;60.67;21.17;;;-1.60;99.90;;;;;;5092293;28;20193;-72
2022/12/03 00:36:46;;;;;;;59.43;21.17;;;-1.60;99.90;;;;;;5092091;28;20197;-71
2022/12/03 00:39:13;;;;;;;57.70;21.40;;;-1.60;99.90;;;;;;5092243;28;20193;-78
2022/12/03 00:41:40;;;;;;;58.63;21.00;;;-1.60;99.90;;;;;;5093668;28;20563;-80
2022/12/03 00:44:07;;;;;;;54.27;20.13;;;-1.60;99.90;;;;;;5093395;28;20194;-80
2022/12/03 00:46:35;;;;;;;63.73;22.17;;;-1.60;99.90;;;;;;5093584;28;20212;-79
2022/12/03 00:49:02;;;;;;;63.93;21.33;;;-1.70;99.90;;;;;;5092378;28;20207;-75
2022/12/03 00:51:29;;;;;;;67.53;21.70;;;-1.70;99.90;;;;;;5092156;28;20287;-79
2022/12/03 00:53:56;;;;;;;61.63;21.27;;;-1.70;99.90;;;;;;5093222;28;20194;-78
2022/12/03 00:56:23;;;;;;;60.80;21.30;;;-1.60;99.90;;;;;;5092022;28;20224;-81
2022/12/03 00:58:50;;;;;;;58.33;20.83;;;-1.70;99.90;;;;;;5092455;28;20288;-80
2022/12/03 01:01:17;;;;;;;63.80;20.80;;;-1.70;99.90;;;;;;5091553;28;20204;-82
2022/12/03 01:03:44;;;;;;;62.13;20.87;;;-1.60;99.90;;;;;;5091923;28;20248;-81
2022/12/03 01:06:11;;;;;;;59.40;21.13;;;-1.80;99.90;;;;;;5075461;28;20197;-80
2022/12/03 01:08:38;;;;;;;61.23;21.47;;;-1.80;99.90;;;;;;5091974;28;20194;-80
2022/12/03 01:11:36;;;;;;;64.93;21.00;;;-1.70;99.90;;;;;;5093475;28;20586;-80
2022/12/03 01:13:53;;;;;;;63.13;21.23;;;-1.60;99.90;;;;;;5091794;28;20292;-80
2022/12/03 01:16:20;;;;;;;65.20;21.00;;;-1.60;99.90;;;;;;5091675;28;20233;-81
2022/12/03 01:18:47;;;;;;;57.10;20.60;;;-1.60;99.90;;;;;;5093540;28;20193;-80
2022/12/03 01:21:14;;;;;;;62.87;20.87;;;-1.50;99.90;;;;;;5092554;28;20210;-82
2022/12/03 01:23:41;;;;;;;59.67;19.47;;;-1.50;99.90;;;;;;5092953;28;20576;-83
2022/12/03 01:26:08;;;;;;;52.07;20.23;;;-1.50;99.90;;;;;;5092987;28;20727;-72
2022/12/03 01:28:35;;;;;;;59.77;20.50;;;-1.50;99.90;;;;;;5091991;28;20185;-73
2022/12/03 01:33:48;;;;;;;57.10;20.00;;;-1.50;99.90;;;;;;5092985;28;20191;-74
2022/12/03 01:36:15;;;;;;;60.90;19.73;;;-1.50;99.90;;;;;;5091446;28;20673;-74
2022/12/03 01:38:41;;;;;;;52.73;20.30;;;-1.60;99.90;;;;;;5091466;28;20283;-72
2022/12/03 01:41:08;;;;;;;64.20;21.77;;;-1.60;99.90;;;;;;5092148;28;20617;-77
2022/12/03 01:43:37;;;;;;;59.43;21.47;;;-1.60;99.90;;;;;;5093018;28;20213;-74
2022/12/03 01:46:05;;;;;;;56.80;21.63;;;-1.60;99.90;;;;;;5092611;28;20596;-77
2022/12/03 01:48:34;;;;;;;57.83;20.47;;;-1.60;99.90;;;;;;5093547;28;20651;-72
2022/12/03 01:51:01;;;;;;;51.50;19.63;;;-1.50;99.90;;;;;;5091906;28;20213;-74
2022/12/03 01:53:28;;;;;;;59.93;20.70;;;-1.60;99.90;;;;;;5091728;28;20776;-79
2022/12/03 01:55:55;;;;;;;50.83;19.30;;;-1.50;99.90;;;;;;5091679;28;20558;-72
2022/12/03 01:58:27;;;;;;;57.27;19.57;;;-1.60;99.90;;;;;;5091860;28;20202;-73
2022/12/03 02:00:57;;;;;;;56.03;19.87;;;-1.50;99.90;;;;;;5091415;28;20202;-80
2022/12/03 02:03:25;;;;;;;53.10;20.03;;;-1.50;99.90;;;;;;5091945;28;20188;-80
2022/12/03 02:05:53;;;;;;;57.90;20.20;;;-1.40;99.90;;;;;;5092765;28;20527;-73
2022/12/03 02:08:35;;;;;;;53.63;20.13;;;-1.40;99.90;;;;;;5091851;28;20232;-81
2022/12/03 02:11:28;;;;;;;53.57;19.40;;;-1.40;99.90;;;;;;5091602;28;20302;-75
2022/12/03 02:14:01;;;;;;;56.43;19.53;;;-1.40;99.90;;;;;;5095454;28;20214;-80
2022/12/03 02:16:29;;;;;;;53.07;19.23;;;-1.40;99.90;;;;;;5094874;28;20214;-79
2022/12/03 02:18:57;;;;;;;49.93;18.83;;;-1.40;99.90;;;;;;5096319;28;20188;-80
2022/12/03 02:21:36;;;;;;;52.43;20.23;;;-1.40;99.90;;;;;;5095735;28;20190;-81
2022/12/03 02:24:15;;;;;;;51.87;19.60;;;-1.40;99.90;;;;;;5095103;28;20182;-81
2022/12/03 02:26:42;;;;;;;50.57;18.90;;;-1.40;99.90;;;;;;5095073;28;20197;-80
2022/12/03 02:29:09;;;;;;;55.80;20.23;;;-1.40;99.90;;;;;;5094616;28;20552;-79
2022/12/03 02:31:36;;;;;;;53.53;19.17;;;-1.40;99.90;;;;;;5096137;28;20253;-80
2022/12/03 02:34:08;;;;;;;53.73;19.50;;;-1.30;99.90;;;;;;5094810;28;20198;-74
2022/12/03 02:36:36;;;;;;;53.70;19.73;;;-1.30;99.90;;;;;;5094610;28;20201;-75
2022/12/03 02:39:04;;;;;;;52.97;19.40;;;-1.30;99.90;;;;;;5094712;28;20277;-72
2022/12/03 02:44:16;;;;;;;44.57;18.77;;;-1.30;99.90;;;;;;5094447;28;20272;-73
2022/12/03 02:46:43;;;;;;;47.43;19.80;;;-1.30;99.90;;;;;;5094301;28;20190;-74
2022/12/03 02:49:11;;;;;;;45.77;18.57;;;-1.20;99.90;;;;;;5094702;28;20224;-80
2022/12/03 02:51:38;;;;;;;49.40;19.57;;;-1.20;99.90;;;;;;5095563;28;20215;-72
2022/12/03 02:54:05;;;;;;;42.20;17.90;;;-1.20;99.90;;;;;;5094224;28;20236;-71
2022/12/03 02:56:32;;;;;;;44.90;18.57;;;-1.20;99.90;;;;;;5093909;28;20234;-73
2022/12/03 02:59:01;;;;;;;46.43;17.40;;;-1.30;99.90;;;;;;5094091;28;20197;-72
2022/12/03 03:01:28;;;;;;;42.03;18.10;;;-1.30;99.90;;;;;;5094159;28;20206;-72
2022/12/03 03:03:57;;;;;;;49.63;18.70;;;-1.40;99.90;;;;;;5095200;28;20654;-72
2022/12/03 03:06:24;;;;;;;49.57;18.13;;;-1.30;99.90;;;;;;5093749;28;20196;-72
2022/12/03 03:08:51;;;;;;;41.80;17.33;;;-1.30;99.90;;;;;;5094020;28;20224;-74
2022/12/03 03:11:18;;;;;;;42.73;18.33;;;-1.40;99.90;;;;;;5093931;28;20293;-75
2022/12/03 03:13:45;;;;;;;45.97;17.83;;;-1.30;99.90;;;;;;5094333;28;20191;-76
2022/12/03 03:16:12;;;;;;;46.23;18.53;;;-1.30;99.90;;;;;;5093809;28;20222;-78
2022/12/03 03:18:40;;;;;;;39.30;17.60;;;-1.30;99.90;;;;;;5094209;28;20199;-72
2022/12/03 03:21:07;;;;;;;38.23;17.20;;;-1.30;99.90;;;;;;5094262;28;20301;-74
2022/12/03 03:23:34;;;;;;;36.77;17.10;;;-1.20;99.90;;;;;;5093551;28;20601;-76
2022/12/03 03:26:10;;;;;;;43.53;18.50;;;-1.20;99.90;;;;;;5093339;28;20201;-74
2022/12/03 03:28:41;;;;;;;38.53;16.50;;;-1.20;99.90;;;;;;5093897;28;20721;-79
2022/12/03 03:31:11;;;;;;;38.87;17.53;;;-1.30;99.90;;;;;;5093307;28;20197;-80
2022/12/03 03:33:40;;;;;;;39.60;17.73;;;-1.20;99.90;;;;;;5093461;28;20299;-75
2022/12/03 03:36:08;;;;;;;41.30;18.30;;;-1.20;99.90;;;;;;5094597;28;20242;-80
2022/12/03 03:38:37;;;;;;;39.57;17.93;;;-1.20;99.90;;;;;;5094655;28;20181;-80
2022/12/03 03:41:06;;;;;;;41.40;17.73;;;-1.20;99.90;;;;;;5093165;28;20202;-72
2022/12/03 03:43:34;;;;;;;41.50;17.53;;;-1.10;99.90;;;;;;5076813;28;20226;-73
2022/12/03 03:46:04;;;;;;;44.00;17.30;;;-1.10;99.90;;;;;;5093266;28;20200;-74
2022/12/03 03:48:33;;;;;;;40.70;17.97;;;-1.10;99.90;;;;;;5093053;28;20526;-74
2022/12/03 03:51:03;;;;;;;40.87;18.00;;;-1.00;99.90;;;;;;5094403;28;20248;-73
2022/12/03 03:53:30;;;;;;;37.37;17.77;;;-1.00;99.90;;;;;;5094361;28;20194;-78
2022/12/03 03:55:57;;;;;;;45.47;17.70;;;-1.10;99.90;;;;;;5092863;28;20237;-71
2022/12/03 03:58:23;;;;;;;39.87;17.70;;;-1.10;99.90;;;;;;5092989;28;20198;-73
2022/12/03 04:00:51;;;;;;;38.50;17.17;;;-1.10;99.90;;;;;;5094407;28;20550;-72
2022/12/03 04:03:18;;;;;;;40.07;17.97;;;-1.10;99.90;;;;;;5095120;28;20718;-73
2022/12/03 04:05:45;;;;;;;40.53;17.63;;;-1.10;99.90;;;;;;5093537;28;20697;-73
2022/12/03 04:08:12;;;;;;;39.17;17.83;;;-1.10;99.90;;;;;;5093536;28;20194;-75
2022/12/03 04:13:25;;;;;;;39.37;18.03;;;-1.30;99.90;;;;;;5093237;28;20524;-76
2022/12/03 04:15:52;;;;;;;40.03;18.13;;;-1.30;99.90;;;;;;5092677;28;20213;-72
2022/12/03 04:23:50;;;;;;;44.23;18.33;;;-1.30;99.90;;;;;;5093400;28;20203;-72
2022/12/03 04:29:02;;;;;;;40.83;18.73;;;-1.20;99.90;;;;;;5092696;28;20240;-75
2022/12/03 04:37:08;;;;;;;41.97;17.80;;;-1.30;99.90;;;;;;5068939;28;20237;-72
2022/12/03 04:39:35;;;;;;;41.07;18.17;;;-1.30;99.90;;;;;;5092248;28;20734;-74
2022/12/03 04:42:03;;;;;;;41.37;17.40;;;-1.20;99.90;;;;;;5092388;28;20199;-76
2022/12/03 04:44:37;;;;;;;42.90;17.97;;;-1.20;99.90;;;;;;5092285;28;20199;-79
2022/12/03 04:47:08;;;;;;;40.13;17.53;;;-1.20;99.90;;;;;;5093928;28;20190;-80
2022/12/03 04:49:41;;;;;;;43.67;18.13;;;-1.20;99.90;;;;;;5093470;28;20207;-80
2022/12/03 04:52:09;;;;;;;38.60;17.80;;;-1.20;99.90;;;;;;5075265;28;20186;-72
2022/12/03 04:54:37;;;;;;;41.57;17.27;;;-1.10;99.90;;;;;;5091928;28;20204;-71
2022/12/03 04:57:06;;;;;;;43.93;18.83;;;-1.20;99.90;;;;;;5093422;28;20252;-73
2022/12/03 04:59:34;;;;;;;43.43;18.97;;;-1.20;99.90;;;;;;5094493;28;20226;-72
2022/12/03 05:02:02;;;;;;;36.30;17.13;;;-1.20;99.90;;;;;;5092150;28;20264;-72
2022/12/03 05:04:29;;;;;;;43.07;17.97;;;-1.20;99.90;;;;;;5093001;28;20203;-72
2022/12/03 05:06:57;;;;;;;41.63;18.03;;;-1.10;99.90;;;;;;5093550;28;20174;-80
2022/12/03 05:09:24;;;;;;;38.07;18.07;;;-1.20;99.90;;;;;;5092190;28;20230;-72
2022/12/03 05:11:51;;;;;;;41.13;18.53;;;-1.10;99.90;;;;;;5093241;28;20236;-74
2022/12/03 05:14:18;;;;;;;41.17;17.13;;;-1.10;99.90;;;;;;5091927;28;20193;-81
2022/12/03 05:16:45;;;;;;;40.90;18.27;;;-1.10;99.90;;;;;;5092956;28;20212;-78
2022/12/03 05:19:12;;;;;;;39.10;17.23;;;-1.00;99.90;;;;;;5092021;28;20193;-74
2022/12/03 05:21:39;;;;;;;39.37;17.87;;;-1.00;99.90;;;;;;5092969;28;20194;-74
2022/12/03 05:24:06;;;;;;;39.80;18.10;;;-0.90;99.90;;;;;;5091566;28;20197;-78
2022/12/03 05:26:33;;;;;;;43.00;17.97;;;-0.90;99.90;;;;;;5091606;28;20291;-82
2022/12/03 05:29:00;;;;;;;42.93;18.07;;;-0.90;99.90;;;;;;5091716;28;20195;-81
2022/12/03 05:31:27;;;;;;;38.03;17.37;;;-0.90;99.90;;;;;;5091341;28;20256;-82
2022/12/03 05:33:54;;;;;;;41.20;18.33;;;-1.00;99.90;;;;;;5091749;28;20205;-79
2022/12/03 05:36:21;;;;;;;40.20;18.10;;;-1.00;99.90;;;;;;5091353;28;20212;-81
2022/12/03 05:38:48;;;;;;;37.50;17.27;;;-0.90;99.90;;;;;;5091760;28;20616;-81
2022/12/03 05:44:00;;;;;;;40.20;17.93;;;-0.90;99.90;;;;;;5091758;28;20705;-83
2022/12/03 05:46:27;;;;;;;41.83;18.80;;;-0.90;99.90;;;;;;5091837;28;20652;-81
2022/12/03 05:48:54;;;;;;;41.13;17.23;;;-0.90;99.90;;;;;;5095565;28;20238;-82
2022/12/03 05:51:21;;;;;;;40.53;17.33;;;-1.00;99.90;;;;;;5095622;28;20188;-83
2022/12/03 05:53:48;;;;;;;40.73;17.60;;;-0.90;99.90;;;;;;5095484;28;20199;-77
2022/12/03 05:56:15;;;;;;;41.03;17.63;;;-0.80;99.90;;;;;;5095302;28;20564;-69
2022/12/03 05:58:42;;;;;;;37.43;17.43;;;-0.80;99.90;;;;;;5095442;28;20218;-71
2022/12/03 06:01:09;;;;;;;35.47;16.73;;;-0.90;99.90;;;;;;5095099;28;20298;-72
2022/12/03 06:03:36;;;;;;;37.53;17.27;;;-0.90;99.90;;;;;;5092690;28;20235;-72
2022/12/03 06:06:03;;;;;;;40.13;17.30;;;-0.90;99.90;;;;;;5074775;28;20189;-74
2022/12/03 06:08:30;;;;;;;39.53;16.77;;;-0.90;99.90;;;;;;5074996;28;20200;-71
2022/12/03 06:10:57;;;;;;;39.30;18.13;;;-0.90;99.90;;;;;;5075096;28;20224;-81
2022/12/03 06:13:24;;;;;;;37.17;16.57;;;-0.80;99.90;;;;;;5074654;28;20191;-76
2022/12/03 06:15:51;;;;;;;44.10;17.30;;;-0.90;99.90;;;;;;5074854;28;20198;-82
2022/12/03 06:18:18;;;;;;;37.87;16.90;;;-0.90;99.90;;;;;;5094144;28;20191;-75
2022/12/03 06:20:45;;;;;;;40.20;16.83;;;-0.90;99.90;;;;;;5096193;28;20188;-73
2022/12/03 06:23:12;;;;;;;38.17;16.77;;;-0.80;99.90;;;;;;5094788;28;20190;-76
2022/12/03 06:25:39;;;;;;;36.90;17.23;;;-0.90;99.90;;;;;;5096553;28;20201;-69
2022/12/03 06:28:06;;;;;;;34.87;16.90;;;-0.80;99.90;;;;;;5096448;28;20189;-79
2022/12/03 06:30:34;;;;;;;35.63;16.37;;;-0.80;99.90;;;;;;5095323;28;20190;-73
2022/12/03 06:33:01;;;;;;;35.73;16.50;;;-0.80;99.90;;;;;;5097236;28;20201;-78
2022/12/03 06:35:28;;;;;;;37.10;16.97;;;-0.80;99.90;;;;;;5095281;28;20286;-76
2022/12/03 06:37:56;;;;;;;37.70;16.90;;;-0.80;99.90;;;;;;5095785;28;20217;-73
2022/12/03 06:40:23;;;;;;;35.97;16.47;;;-0.80;99.90;;;;;;5094697;28;20267;-82
2022/12/03 06:42:51;;;;;;;40.40;16.77;;;-0.70;99.90;;;;;;5094624;28;20198;-80
2022/12/03 06:45:18;;;;;;;36.20;15.77;;;-0.70;99.90;;;;;;5094536;28;20293;-72
2022/12/03 06:47:45;;;;;;;39.73;16.80;;;-0.70;99.90;;;;;;5094957;28;20197;-79
2022/12/03 06:50:13;;;;;;;36.53;16.97;;;-0.70;99.90;;;;;;5095963;28;20191;-73
2022/12/03 06:52:40;;;;;;;33.27;16.43;;;-0.60;99.90;;;;;;5095920;28;20196;-78
2022/12/03 06:55:07;;;;;;;40.40;17.57;;;-0.70;99.90;;;;;;5094580;28;20203;-81
2022/12/03 06:57:34;;;;;;;34.33;15.80;;;-0.60;99.90;;;;;;5094455;28;20635;-78
2022/12/03 07:00:02;;;;;;;35.33;15.93;;;-0.60;99.90;;;;;;5093874;28;20220;-82
2022/12/03 07:02:29;;;;;;;32.33;16.27;;;-0.60;99.90;;;;;;5093860;28;20284;-73
2022/12/03 07:04:56;;;;;;;40.63;17.37;;;-0.60;99.90;;;;;;5094407;28;20200;-73
2022/12/03 07:07:24;;;;;;;36.20;16.57;;;-0.60;99.90;;;;;;5094330;28;20195;-72
2022/12/03 07:09:51;;;;;;;39.23;17.03;;;-0.60;99.90;;;;;;5095098;28;20236;-72
2022/12/03 07:12:18;;;;;;;38.17;16.57;;;-0.50;99.90;;;;;;5093947;28;20198;-78
2022/12/03 07:14:45;;;;;;;35.10;16.53;;;-0.50;99.90;;;;;;5093835;28;20200;-78
2022/12/03 07:17:12;;;;;;;38.47;16.57;;;-0.50;99.90;;;;;;5093578;28;20221;-72
2022/12/03 07:19:39;;;;;;;38.60;16.90;;;-0.50;99.90;;;;;;5093964;28;20191;-80
2022/12/03 07:22:06;;;;;;;36.63;17.67;;;-0.50;99.90;;;;;;5096011;28;20196;-74
2022/12/03 07:24:33;;;;;;;36.80;16.40;;;-0.50;99.90;;;;;;5094526;28;20195;-79
2022/12/03 07:27:00;;;;;;;38.43;17.83;;;-0.40;99.90;;;;;;5094850;28;20551;-82
2022/12/03 07:29:27;;;;;;;37.03;16.03;;;-0.50;99.90;;;;;;5095814;28;20205;-82
2022/12/03 07:31:54;;;;;;;36.33;17.33;;;-0.50;99.90;;;;;;5094814;28;20572;-78
2022/12/03 07:34:21;;;;;;;37.10;16.57;;;-0.40;99.90;;;;;;5093387;28;20558;-74
2022/12/03 07:36:48;;;;;;;34.43;16.87;;;-0.40;99.90;;;;;;5093326;28;20219;-76
2022/12/03 07:39:15;;;;;;;37.93;17.30;;;-0.40;99.90;;;;;;5093192;28;20204;-77
2022/12/03 07:41:42;;;;;;;36.57;16.67;;;-0.40;99.90;;;;;;5094465;28;20203;-74
2022/12/03 07:44:09;;;;;;;36.70;16.30;;;-0.40;99.90;;;;;;5093413;28;20644;-81
2022/12/03 07:46:40;;;;;;;35.07;16.43;;;-0.30;99.90;;;;;;5094625;28;20204;-77
2022/12/03 07:49:07;;;;;;;35.17;16.53;;;-0.30;99.90;;;;;;5086332;28;20271;-81
2022/12/03 07:51:34;;;;;;;32.00;15.30;;;-0.40;99.90;;;;;;5073263;28;20262;-73
2022/12/03 07:54:01;;;;;;;34.97;17.00;;;-0.40;99.90;;;;;;5072961;28;20198;-75
2022/12/03 07:56:28;;;;;;;37.53;17.53;;;-0.40;99.90;;;;;;5072955;28;20215;-79
2022/12/03 07:58:55;;;;;;;37.70;16.57;;;-0.40;99.90;;;;;;5073083;28;20599;-82
2022/12/03 08:01:22;;;;;;;38.67;17.63;;;-0.40;99.90;;;;;;5073070;28;20300;-82
2022/12/03 08:03:49;;;;;;;37.30;16.80;;;-0.40;99.90;;;;;;5074402;28;20654;-77
2022/12/03 08:06:17;;;;;;;36.50;16.70;;;-0.40;99.90;;;;;;5072644;28;20192;-81
2022/12/03 08:08:44;;;;;;;37.33;16.97;;;-0.30;99.90;;;;;;5072310;28;20194;-75
2022/12/03 08:11:15;;;;;;;36.73;17.70;;;-0.30;99.90;;;;;;5071838;28;20208;-72
2022/12/03 08:13:42;;;;;;;37.73;17.30;;;-0.30;99.90;;;;;;5072379;28;20599;-72
2022/12/03 08:16:21;;;;;;;37.87;17.17;;;-0.30;99.90;;;;;;5072336;28;20283;-77
2022/12/03 08:18:49;;;;;;;42.03;17.67;;;-0.30;99.90;;;;;;5073426;28;20242;-77
2022/12/03 08:21:19;;;;;;;38.90;17.97;;;-0.30;99.90;;;;;;5072383;28;20194;-73
2022/12/03 08:23:46;;;;;;;38.80;17.33;;;-0.30;99.90;;;;;;5073694;28;20209;-73
2022/12/03 08:26:24;;;;;;;38.17;18.13;;;-0.40;99.90;;;;;;5072135;28;20647;-74
2022/12/03 08:28:51;;;;;;;35.47;17.50;;;-0.30;99.90;;;;;;5072190;28;20197;-73
2022/12/03 08:31:24;;;;;;;39.13;17.20;;;-0.30;99.90;;;;;;5071867;28;20190;-72
2022/12/03 08:34:12;;;;;;;44.43;18.33;;;-0.30;99.90;;;;;;5071889;28;20293;-73
2022/12/03 08:36:39;;;;;;;35.70;17.67;;;-0.30;99.90;;;;;;5072214;28;20557;-79
2022/12/03 08:39:27;;;;;;;39.57;17.83;;;-0.20;99.90;;;;;;5072056;28;20683;-72
2022/12/03 08:44:44;;;;;;;39.90;17.47;;;-0.30;99.90;;;;;;5071876;28;20194;-72
2022/12/03 08:47:21;;;;;;;37.20;17.30;;;-0.30;99.90;;;;;;5071875;28;20191;-81
2022/12/03 08:49:56;;;;;;;38.27;17.33;;;-0.20;99.90;;;;;;5073529;28;20223;-84
2022/12/03 08:52:30;;;;;;;38.80;18.10;;;-0.20;99.90;;;;;;5072786;28;20313;-80
2022/12/03 08:54:57;;;;;;;38.37;17.10;;;-0.10;99.90;;;;;;5073472;28;20189;-77
2022/12/03 08:57:31;;;;;;;43.17;18.17;;;-0.10;99.90;;;;;;5072999;28;20235;-76
2022/12/03 09:00:15;;;;;;;34.77;16.47;;;0.00;99.90;;;;;;5071680;28;20186;-77
2022/12/03 09:02:46;;;;;;;43.60;18.23;;;0.00;99.90;;;;;;5071933;28;20704;-77
2022/12/03 09:05:18;;;;;;;40.33;17.17;;;0.00;99.90;;;;;;5073140;28;20293;-77
2022/12/03 09:07:45;;;;;;;38.50;17.60;;;0.00;99.90;;;;;;5073480;28;20193;-84
2022/12/03 09:10:13;;;;;;;35.40;16.80;;;0.00;99.90;;;;;;5071886;28;20256;-84
2022/12/03 09:12:40;;;;;;;36.37;17.80;;;0.10;99.90;;;;;;5076311;28;20196;-83
2022/12/03 09:15:07;;;;;;;37.50;18.37;;;0.10;99.90;;;;;;5071516;28;20230;-77
2022/12/03 09:17:35;;;;;;;38.23;18.20;;;0.10;99.90;;;;;;5086694;28;20224;-74
2022/12/03 09:20:03;;;;;;;36.37;17.90;;;0.20;99.90;;;;;;5091905;28;20628;-74
2022/12/03 09:22:30;;;;;;;43.23;18.30;;;0.20;99.90;;;;;;5092751;28;20272;-76
2022/12/03 09:24:57;;;;;;;36.67;17.43;;;0.30;99.90;;;;;;5091597;28;20287;-75
2022/12/03 09:27:24;;;;;;;38.13;17.53;;;0.40;99.90;;;;;;5091381;28;20313;-75
2022/12/03 09:29:52;;;;;;;35.67;16.93;;;0.40;99.90;;;;;;5093124;28;20197;-75
2022/12/03 09:32:19;;;;;;;36.93;17.33;;;0.40;99.90;;;;;;5082672;28;20194;-75
2022/12/03 09:34:46;;;;;;;37.20;17.53;;;0.40;99.90;;;;;;5086111;28;20186;-75
2022/12/03 09:37:13;;;;;;;38.30;17.90;;;0.40;99.90;;;;;;5091640;28;20220;-74
2022/12/03 09:39:43;;;;;;;40.50;18.70;;;0.40;99.90;;;;;;5089360;28;20192;-74
2022/12/03 09:42:10;;;;;;;35.03;17.53;;;0.50;99.90;;;;;;5071370;28;20193;-75
2022/12/03 09:44:38;;;;;;;38.53;17.77;;;0.40;99.90;;;;;;5072370;28;20198;-72
2022/12/03 09:47:05;;;;;;;40.10;18.27;;;0.30;99.90;;;;;;5078032;28;20217;-74
2022/12/03 09:49:34;;;;;;;38.33;17.47;;;0.40;99.90;;;;;;5071121;28;20232;-76
2022/12/03 09:52:04;;;;;;;36.03;18.13;;;0.50;99.90;;;;;;5079730;28;20650;-74
2022/12/03 09:54:32;;;;;;;38.53;17.97;;;0.50;99.90;;;;;;5083624;28;20184;-78
2022/12/03 09:57:01;;;;;;;41.37;18.83;;;0.40;99.90;;;;;;5081032;28;20211;-77
2022/12/03 09:59:33;;;;;;;38.67;18.03;;;0.40;99.90;;;;;;5081759;28;20292;-77
2022/12/03 10:02:01;;;;;;;35.77;17.43;;;0.50;99.90;;;;;;5091059;28;20333;-81
2022/12/03 10:04:29;;;;;;;36.70;18.20;;;0.50;99.90;;;;;;5033328;28;20284;-80
2022/12/03 10:06:57;;;;;;;38.63;17.70;;;0.70;99.90;;;;;;5050519;28;20199;-74
2022/12/03 10:09:26;;;;;;;36.13;18.33;;;0.70;99.90;;;;;;5033352;28;20242;-77
2022/12/03 10:11:58;;;;;;;37.63;18.80;;;0.90;99.90;;;;;;5033585;28;20234;-80
2022/12/03 10:14:26;;;;;;;41.50;18.47;;;1.00;99.90;;;;;;5033223;28;20234;-78
2022/12/03 10:16:53;;;;;;;39.27;19.23;;;1.00;99.90;;;;;;5033893;28;20240;-81
2022/12/03 10:19:32;;;;;;;45.53;19.07;;;1.00;99.90;;;;;;5033669;28;20264;-76
2022/12/03 10:22:00;;;;;;;40.07;18.37;;;1.20;99.90;;;;;;5045732;28;20256;-74
2022/12/03 10:24:32;;;;;;;38.53;18.57;;;1.30;99.90;;;;;;5091591;28;20188;-83
2022/12/03 10:27:23;;;;;;;39.97;18.60;;;1.30;99.90;;;;;;5090713;28;20660;-81
2022/12/03 10:29:58;;;;;;;35.67;17.20;;;1.30;99.90;;;;;;5073359;28;20539;-81
2022/12/03 10:32:46;;;;;;;35.13;17.67;;;1.40;99.90;;;;;;5070915;28;20650;-80
2022/12/03 10:35:37;;;;;;;36.50;17.53;;;1.20;99.90;;;;;;5074494;28;20256;-83
2022/12/03 10:38:16;;;;;;;40.27;18.03;;;1.10;99.90;;;;;;5074714;28;20645;-82
2022/12/03 10:40:44;;;;;;;36.90;17.50;;;1.10;99.90;;;;;;5074298;28;20205;-74
2022/12/03 10:43:17;;;;;;;38.77;18.33;;;1.20;99.90;;;;;;5091771;28;20302;-76
2022/12/03 10:46:12;;;;;;;36.70;19.23;;;1.20;99.90;;;;;;5073931;28;20193;-80
2022/12/03 10:48:39;;;;;;;35.87;17.87;;;1.10;99.90;;;;;;5071533;28;20198;-80
2022/12/03 10:51:12;;;;;;;38.00;18.13;;;1.20;99.90;;;;;;5080939;28;20185;-75
2022/12/03 10:53:39;;;;;;;36.93;17.73;;;1.10;99.90;;;;;;5076587;28;20718;-78
2022/12/03 10:56:12;;;;;;;39.90;18.80;;;1.00;99.90;;;;;;5074267;28;20290;-73
2022/12/03 10:58:40;;;;;;;40.03;18.97;;;1.00;99.90;;;;;;5075641;28;20696;-76
2022/12/03 11:01:18;;;;;;;37.30;19.13;;;1.00;99.90;;;;;;5084587;28;20288;-77
2022/12/03 11:03:45;;;;;;;37.83;19.07;;;1.10;99.90;;;;;;5084669;28;20201;-77
2022/12/03 11:06:15;;;;;;;39.10;19.10;;;1.10;99.90;;;;;;5085455;28;20263;-78
2022/12/03 11:08:45;;;;;;;38.67;18.87;;;1.20;99.90;;;;;;5076544;28;20588;-74
2022/12/03 11:11:24;;;;;;;39.57;19.00;;;1.10;99.90;;;;;;5078791;28;20200;-77
2022/12/03 11:13:54;;;;;;;43.20;20.27;;;1.10;99.90;;;;;;5073814;28;20338;-76
2022/12/03 11:16:40;;;;;;;40.70;18.90;;;1.20;99.90;;;;;;5074519;28;20264;-75
2022/12/03 11:19:38;;;;;;;39.93;19.97;;;1.20;99.90;;;;;;5068185;28;20225;-77
2022/12/03 11:22:05;;;;;;;40.40;18.57;;;1.10;99.90;;;;;;5066735;28;20671;-77
2022/12/03 11:24:34;;;;;;;41.57;19.97;;;1.10;99.90;;;;;;5073572;28;20259;-78
2022/12/03 11:27:01;;;;;;;42.30;20.43;;;1.10;99.90;;;;;;5073595;28;20274;-78
2022/12/03 11:29:48;;;;;;;45.07;20.40;;;1.20;99.90;;;;;;5057923;28;20711;-80
2022/12/03 11:32:39;;;;;;;40.60;19.63;;;1.20;99.90;;;;;;5075225;28;20245;-80
2022/12/03 11:35:21;;;;;;;37.40;18.43;;;1.20;99.90;;;;;;5063251;28;20203;-80
2022/12/03 11:37:49;;;;;;;41.53;19.90;;;1.20;99.90;;;;;;5073501;28;20224;-80
2022/12/03 11:40:16;;;;;;;40.30;18.90;;;1.10;99.90;;;;;;5073999;28;20198;-80
2022/12/03 11:42:46;;;;;;;42.80;19.03;;;1.00;99.90;;;;;;5073163;28;20201;-79
2022/12/03 11:45:29;;;;;;;41.37;19.67;;;1.10;99.90;;;;;;5073030;28;20193;-80
2022/12/03 11:48:10;;;;;;;46.33;20.83;;;1.10;99.90;;;;;;5074613;28;20194;-80
2022/12/03 11:50:39;;;;;;;40.57;19.83;;;1.20;99.90;;;;;;5073965;28;20262;-80
2022/12/03 11:53:11;;;;;;;38.23;19.03;;;1.20;99.90;;;;;;5074722;28;20702;-80
2022/12/03 11:55:51;;;;;;;41.10;19.30;;;1.20;99.90;;;;;;5073260;28;20567;-79
2022/12/03 11:58:25;;;;;;;42.63;19.83;;;1.10;99.90;;;;;;5073226;28;20206;-80
2022/12/03 12:00:55;;;;;;;43.17;19.43;;;1.30;99.90;;;;;;5074596;28;20192;-81
2022/12/03 12:03:26;;;;;;;43.10;19.60;;;1.30;99.90;;;;;;5073057;28;20213;-80
2022/12/03 12:06:14;;;;;;;47.10;20.23;;;1.30;99.90;;;;;;5073612;28;20730;-78
2022/12/03 12:08:55;;;;;;;41.67;19.40;;;1.30;99.90;;;;;;5073677;28;20182;-78
2022/12/03 12:11:53;;;;;;;44.17;20.03;;;1.20;99.90;;;;;;5073584;28;20217;-77
2022/12/03 12:17:45;;;;;;;37.50;18.57;;;1.30;99.90;;;;;;5031561;28;20209;-77
2022/12/03 12:20:28;;;;;;;45.87;19.43;;;1.40;99.90;;;;;;5031140;28;20241;-77
2022/12/03 12:23:15;;;;;;;44.93;21.10;;;1.50;99.90;;;;;;5015043;28;20570;-75
2022/12/03 12:25:51;;;;;;;46.43;21.03;;;1.50;99.90;;;;;;5014737;28;20708;-76
2022/12/03 12:28:45;;;;;;;;;;;;;;;;;;;;;
2022/12/03 12:31:24;;;;;;;49.13;21.43;;;1.50;99.90;;;;;;4999652;28;20193;-77
2022/12/03 12:33:59;;;;;;;46.03;20.53;;;1.50;99.90;;;;;;5042451;28;20203;-74
2022/12/03 12:36:27;;;;;;;47.17;21.20;;;1.50;99.90;;;;;;5011232;28;20301;-77
2022/12/03 12:38:54;;;;;;;47.50;21.27;;;1.60;99.90;;;;;;4994879;28;20230;-75
2022/12/03 12:42:01;;;;;;;45.30;20.77;;;1.60;99.90;;;;;;4994693;28;20206;-76
2022/12/03 12:44:37;;;;;;;45.70;21.33;;;1.70;99.90;;;;;;5011054;28;20199;-77
2022/12/03 12:47:11;;;;;;;43.37;20.83;;;1.70;99.90;;;;;;5011189;28;20191;-76
2022/12/03 12:49:38;;;;;;;46.80;20.77;;;1.70;99.90;;;;;;4994789;28;20240;-77
2022/12/03 12:52:18;;;;;;;47.73;21.83;;;1.70;99.90;;;;;;5011336;28;20211;-75
2022/12/03 12:54:46;;;;;;;44.17;20.80;;;1.80;99.90;;;;;;5026737;28;20208;-76
2022/12/03 12:57:22;;;;;;;50.10;22.17;;;1.70;99.90;;;;;;5051175;28;20195;-78
2022/12/03 12:59:49;;;;;;;45.63;21.00;;;1.80;99.90;;;;;;5051635;28;20301;-77
2022/12/03 13:02:37;;;;;;;41.90;19.83;;;1.70;99.90;;;;;;5051679;28;20225;-79
2022/12/03 13:05:07;;;;;;;45.40;20.67;;;1.80;99.90;;;;;;5055340;28;20202;-78
2022/12/03 13:07:34;;;;;;;49.27;21.43;;;1.70;99.90;;;;;;5061148;28;20261;-78
2022/12/03 13:10:41;;;;;;;49.67;21.53;;;1.60;99.90;;;;;;5070608;28;20293;-77
2022/12/03 13:13:24;;;;;;;49.23;21.47;;;1.60;99.90;;;;;;5054793;28;20593;-77
2022/12/03 13:16:06;;;;;;;45.63;21.53;;;1.60;99.90;;;;;;5064732;28;20193;-76
2022/12/03 13:18:44;;;;;;;50.60;21.83;;;1.60;99.90;;;;;;5068979;28;20672;-77